Aeroporto :
LOGIN :

Iscrizione | Disclaimer

   EN    FR    IT 

 










Sommario :    VFR   VFR Marginale   IFR   IFR Intensivo   IFR Molto Intensivo
Visibilità : 
Base nubi : 
>= 8 km
>= 3000ft
5 / 8 km
1000 / 3000 ft
1500m / 5 km
500 / 1000 ft
800 / 1500m
200 / 500 ft
< 800m
< 200 ft
Simboli :   Temporali  Nebbia  Neve Forte  Precipitazioni Forti  Vento > 20 kt
SIGMETs :   Varie  Temporali  Ghiacco  Turbolenza  Onda orograficha  Ceneri Vulcaniche






- Altitudine del aeroporto : 238 ft
- Codice IATA : FAB


EGLF - Farnborough

ULTIMO METAR :
  • 051650Z AUTO 21015KT 9999 NCD 09/06 Q1016

METARs OBSOLETI :
  • 051620Z AUTO 21012G22KT 9999 NCD 08/06 Q1016
  • 051550Z AUTO 21012KT 9999 NCD 08/06 Q1016
  • 051520Z 21011KT CAVOK 08/06 Q1017
  • 051450Z AUTO 21010KT 9999 NCD 08/06 Q1017
  • 051420Z AUTO 22012KT 9999 FEW012/// 08/06 Q1018

TAF TAF EGLF
Valido dal 05 a 15 ore il 05 a 23 ore UTC


051403Z 0515/0523 23007KT 9999 SCT040
TEMPO 0520/0523 24015G25KT
ATIS : +44 09063 800 400 (*282)



MetMap, La meteo Aeronautica in un colpo d'occhio ! - Copyright ORBIFLY Dicembre 2007 - Disclaimer

ORBIFLY MET'MAP TEAM :

Programmazione e sviluppo : Alexandra Zaïnal
Concezione : Baudouin d'Aumeries
Aiuto per la programmazione : Marc-Olivier Méhu
Supporto tecnico e logistico : Manuel Goepfert
Aiuto per la traduzione : Arnaldo La Scala

Contatto : metmap@orbifly.com




FONTI E CREDITI :

   NOAA